createdAt,value
2018-08-08T00:00:01.177Z,17.4
2018-08-08T00:05:01.116Z,17.0
2018-08-08T00:10:01.261Z,16.6
2018-08-08T00:15:01.116Z,16.7
2018-08-08T00:20:01.143Z,17.1
2018-08-08T00:25:01.114Z,16.8
2018-08-08T00:30:01.196Z,17.1
2018-08-08T00:35:01.128Z,16.3
2018-08-08T00:40:01.204Z,15.7
2018-08-08T00:45:01.145Z,15.5
2018-08-08T00:50:01.263Z,15.0
2018-08-08T00:55:01.138Z,14.6
2018-08-08T01:00:01.222Z,15.0
2018-08-08T01:05:01.185Z,14.6
2018-08-08T01:10:01.145Z,14.7
2018-08-08T01:15:01.131Z,15.0
2018-08-08T01:20:01.105Z,15.3
2018-08-08T01:25:01.118Z,15.8
2018-08-08T01:30:01.109Z,15.7
2018-08-08T01:35:01.101Z,15.4
2018-08-08T01:40:01.106Z,15.0
2018-08-08T01:45:01.112Z,14.8
2018-08-08T01:50:01.131Z,14.2
2018-08-08T01:55:01.108Z,14.8
2018-08-08T02:00:01.110Z,14.9
2018-08-08T02:05:01.125Z,15.4
2018-08-08T02:15:01.125Z,15.7
2018-08-08T02:20:01.118Z,15.2
2018-08-08T02:25:01.157Z,15.6
2018-08-08T02:30:01.151Z,16.4
2018-08-08T02:35:01.163Z,17.2
2018-08-08T02:40:01.174Z,18.2
2018-08-08T02:45:01.228Z,18.5
2018-08-08T02:50:01.174Z,18.7
2018-08-08T02:55:01.163Z,19.1
2018-08-08T03:00:01.156Z,19.6
2018-08-08T03:05:01.125Z,19.1
2018-08-08T03:10:01.262Z,19.5
2018-08-08T03:15:01.134Z,19.5
2018-08-08T03:20:01.134Z,18.9
2018-08-08T03:25:01.140Z,17.9
2018-08-08T03:30:01.134Z,17.8
2018-08-08T03:35:01.137Z,18.0
2018-08-08T03:45:01.202Z,18.2
2018-08-08T03:50:01.154Z,18.2
2018-08-08T03:55:01.157Z,18.7
2018-08-08T04:00:01.272Z,18.8
2018-08-08T04:10:01.206Z,18.5
2018-08-08T04:15:01.139Z,18.7
2018-08-08T04:20:01.273Z,18.9
2018-08-08T04:30:01.219Z,18.3
2018-08-08T04:35:01.150Z,18.3
2018-08-08T04:40:01.154Z,17.9
2018-08-08T04:45:01.156Z,18.2
2018-08-08T04:50:01.231Z,18.1
2018-08-08T04:55:01.161Z,18.2
2018-08-08T05:00:01.155Z,18.0
2018-08-08T05:05:01.160Z,18.1
2018-08-08T05:10:01.169Z,17.5
2018-08-08T05:15:01.161Z,17.4
2018-08-08T05:20:01.398Z,17.6
2018-08-08T05:25:01.174Z,18.4
2018-08-08T05:30:01.293Z,18.9
2018-08-08T05:35:01.210Z,19.8
2018-08-08T05:40:01.273Z,19.6
2018-08-08T05:45:01.220Z,21.0
2018-08-08T05:50:01.347Z,21.0
2018-08-08T05:55:01.210Z,21.4
2018-08-08T06:00:01.281Z,20.9
2018-08-08T06:05:01.218Z,21.2
2018-08-08T06:10:01.217Z,20.7
2018-08-08T06:15:01.185Z,20.3
2018-08-08T06:20:01.548Z,20.0
2018-08-08T06:25:01.185Z,19.4
2018-08-08T06:30:01.325Z,18.8
2018-08-08T06:35:01.190Z,17.7
2018-08-08T06:40:01.325Z,16.8
2018-08-08T06:45:01.193Z,15.3
2018-08-08T06:50:01.409Z,15.2
2018-08-08T06:55:01.197Z,14.8
2018-08-08T07:00:01.545Z,14.4
2018-08-08T07:05:01.194Z,14.6
2018-08-08T07:10:01.318Z,14.2
2018-08-08T07:15:01.195Z,14.0
2018-08-08T07:20:01.290Z,13.9
2018-08-08T07:25:01.200Z,14.0
2018-08-08T07:30:01.263Z,13.6
2018-08-08T07:35:01.201Z,14.1
2018-08-08T07:40:01.525Z,13.6
2018-08-08T07:45:01.198Z,13.3
2018-08-08T07:50:01.269Z,12.8
2018-08-08T07:55:01.194Z,12.6
2018-08-08T08:00:01.272Z,12.4
2018-08-08T08:05:01.204Z,12.3
2018-08-08T08:15:01.273Z,12.0
2018-08-08T08:20:01.204Z,11.7
2018-08-08T08:25:01.209Z,11.1
2018-08-08T08:30:01.274Z,11.1
2018-08-08T08:35:01.208Z,11.4
2018-08-08T08:40:01.274Z,11.2
2018-08-08T08:45:01.219Z,11.4
2018-08-08T08:50:01.413Z,12.0
2018-08-08T09:00:01.279Z,11.8
2018-08-08T09:10:01.307Z,12.0
2018-08-08T09:15:01.440Z,11.6
2018-08-08T09:25:01.291Z,11.6
2018-08-08T09:30:01.352Z,11.5
2018-08-08T09:35:01.221Z,11.0
2018-08-08T09:40:01.285Z,11.0
2018-08-08T09:45:01.224Z,10.5
2018-08-08T09:50:01.285Z,10.1
2018-08-08T09:55:01.258Z,10.4
2018-08-08T10:00:01.358Z,10.0
2018-08-08T10:05:01.232Z,9.6
2018-08-08T10:10:01.302Z,9.1
2018-08-08T10:15:01.265Z,9.5
2018-08-08T10:20:06.308Z,8.8
2018-08-08T10:25:01.260Z,9.0
2018-08-08T10:30:01.364Z,8.8
2018-08-08T10:35:01.252Z,9.4
2018-08-08T10:45:01.368Z,9.8
2018-08-08T10:55:01.243Z,10.2
2018-08-08T11:00:01.237Z,10.4
2018-08-08T11:05:01.239Z,9.9
2018-08-08T11:10:01.367Z,10.1
2018-08-08T11:15:01.243Z,10.1
2018-08-08T11:25:01.274Z,10.0
2018-08-08T11:30:01.310Z,10.2
2018-08-08T11:35:06.247Z,10.3
2018-08-08T11:40:01.365Z,9.9
2018-08-08T11:45:01.231Z,9.8
2018-08-08T11:50:01.241Z,10.0
2018-08-08T11:55:01.243Z,10.2
2018-08-08T12:00:06.315Z,10.0
2018-08-08T12:05:06.253Z,10.4
2018-08-08T12:10:01.353Z,10.6
2018-08-08T12:15:06.249Z,10.8
2018-08-08T12:20:01.289Z,10.2
2018-08-08T12:25:01.294Z,10.2
2018-08-08T12:30:06.330Z,10.8
2018-08-08T12:35:01.278Z,11.3
2018-08-08T12:40:01.252Z,11.2
2018-08-08T12:45:01.236Z,12.4
2018-08-08T12:50:01.368Z,13.2
2018-08-08T13:00:01.238Z,13.2
2018-08-08T13:05:01.249Z,13.0
2018-08-08T13:10:01.245Z,12.4
2018-08-08T13:15:01.253Z,11.7
2018-08-08T13:20:01.317Z,11.1
2018-08-08T13:25:01.250Z,10.8
2018-08-08T13:30:01.409Z,10.9
2018-08-08T13:45:01.407Z,11.2
2018-08-08T13:50:01.271Z,11.5
2018-08-08T13:55:01.369Z,11.9
2018-08-08T14:00:01.243Z,12.6
2018-08-08T14:05:01.245Z,13.2
2018-08-08T14:10:01.321Z,13.4
2018-08-08T14:15:01.249Z,13.2
2018-08-08T14:25:06.386Z,13.3
2018-08-08T14:30:06.321Z,13.3
2018-08-08T14:36:01.238Z,13.3
2018-08-08T14:41:01.304Z,13.7
2018-08-08T14:46:01.240Z,14.0
2018-08-08T14:51:01.374Z,17.4
2018-08-08T14:56:01.246Z,21.8
2018-08-08T15:01:01.324Z,25.9
2018-08-08T15:06:01.325Z,30.3
2018-08-08T15:11:01.318Z,34.0
2018-08-08T15:16:01.261Z,34.6
2018-08-08T15:21:01.381Z,34.6
2018-08-08T15:26:06.248Z,34.9
2018-08-08T15:31:06.501Z,34.6
2018-08-08T15:36:06.232Z,34.4
2018-08-08T15:41:06.309Z,33.4
2018-08-08T15:46:01.244Z,32.6
2018-08-08T15:51:01.305Z,32.1
2018-08-08T15:56:01.244Z,31.8
2018-08-08T16:01:01.245Z,32.8
2018-08-08T16:06:01.244Z,32.8
2018-08-08T16:11:01.310Z,31.8
2018-08-08T16:16:01.250Z,30.5
2018-08-08T16:21:01.307Z,28.7
2018-08-08T16:26:01.248Z,26.8
2018-08-08T16:31:01.378Z,26.3
2018-08-08T16:36:01.278Z,26.4
2018-08-08T16:41:01.326Z,25.3
2018-08-08T16:46:01.279Z,25.2
2018-08-08T16:51:06.247Z,24.7
2018-08-08T16:56:06.247Z,24.4
2018-08-08T17:01:01.239Z,24.5
2018-08-08T17:06:01.284Z,24.9
2018-08-08T17:11:01.364Z,25.3
2018-08-08T17:16:06.255Z,24.7
2018-08-08T17:21:06.332Z,24.2
2018-08-08T17:26:01.418Z,24.0
2018-08-08T17:31:06.321Z,24.7
2018-08-08T17:36:01.275Z,24.2
2018-08-08T17:41:06.314Z,25.2
2018-08-08T17:46:06.254Z,25.6
2018-08-08T17:51:06.383Z,26.2
2018-08-08T17:56:01.251Z,26.8
2018-08-08T18:01:01.331Z,28.1
2018-08-08T18:11:06.329Z,29.5
2018-08-08T18:16:01.281Z,29.5
2018-08-08T18:26:01.281Z,29.9
2018-08-08T18:31:01.427Z,30.3
2018-08-08T18:36:06.254Z,30.3
2018-08-08T18:41:06.267Z,30.6
2018-08-08T18:46:01.248Z,30.4
2018-08-08T18:51:01.251Z,30.0
2018-08-08T19:01:01.376Z,28.7
2018-08-08T19:06:01.256Z,28.2
2018-08-08T19:11:01.236Z,28.1
2018-08-08T19:16:01.271Z,28.0
2018-08-08T19:21:01.239Z,27.4
2018-08-08T19:26:01.241Z,27.2
2018-08-08T19:31:01.372Z,27.0
2018-08-08T19:36:01.248Z,26.3
2018-08-08T19:41:01.244Z,25.7
2018-08-08T19:46:01.369Z,25.3
2018-08-08T19:51:01.253Z,24.3
2018-08-08T19:56:01.294Z,24.1
2018-08-08T20:01:01.311Z,23.4
2018-08-08T20:06:01.256Z,22.2
2018-08-08T20:11:01.366Z,21.4
2018-08-08T20:16:01.242Z,20.8
2018-08-08T20:21:01.244Z,18.5
2018-08-08T20:26:01.239Z,17.4
2018-08-08T20:31:01.309Z,16.0
2018-08-08T20:36:01.282Z,14.6
2018-08-08T20:41:01.250Z,13.6
2018-08-08T20:46:01.251Z,13.6
2018-08-08T20:51:01.278Z,12.6
2018-08-08T20:56:01.276Z,12.6
2018-08-08T21:01:01.255Z,12.0
2018-08-08T21:06:01.252Z,11.4
2018-08-08T21:11:01.249Z,10.9
2018-08-08T21:16:01.250Z,10.5
2018-08-08T21:21:01.243Z,9.6
2018-08-08T21:26:01.243Z,9.6
2018-08-08T21:31:01.271Z,9.8
2018-08-08T21:36:01.244Z,9.8
2018-08-08T21:41:01.239Z,10.0
2018-08-08T21:46:01.245Z,10.3
2018-08-08T21:51:01.245Z,10.4
2018-08-08T21:56:06.282Z,10.0
2018-08-08T22:10:00.406Z,13.2
2018-08-08T22:30:00.700Z,10.8
2018-08-08T22:35:00.664Z,10.0
2018-08-08T22:40:00.684Z,10.6
2018-08-08T22:45:00.662Z,10.5
2018-08-08T22:50:00.665Z,10.6
2018-08-08T22:55:00.664Z,11.0
2018-08-08T23:00:00.678Z,11.8
2018-08-08T23:05:00.687Z,11.6
2018-08-08T23:10:00.662Z,11.8
2018-08-08T23:15:00.671Z,11.9
2018-08-08T23:20:00.670Z,12.0
2018-08-08T23:25:00.675Z,11.8
2018-08-08T23:30:00.706Z,11.8
2018-08-08T23:35:00.676Z,12.2
2018-08-08T23:40:00.671Z,12.2
2018-08-08T23:45:00.678Z,12.1
2018-08-08T23:50:00.768Z,12.3
2018-08-08T23:55:00.721Z,12.0
